Latest Weather Observations for Yeppoon

IDQ60801

Issued at 9:05 am EST Sunday 23 November 2014 (issued every 30 minutes, with the page automatically refreshed every 10 minutes)

About weather observations | Map of weather stations | Latest weather observations for QLD | Other Formats
Station Details ID: 033294 Name: YEPPOON THE ESPLANADE Lat: -23.14 Lon: 150.75 Height: 5.5 m
Data from the previous 72 hours. | See also: Recent months at Yeppoon
Date/Time
EST
Temp
°C
App
Temp
°C
Dew
Point
Rel
Hum
%
Delta-T
°C
Wind Press
QNH
hPa
Press
MSL
hPa
Rain
since 9 am
mm
Dir
 
Spd
km/h
Gust
km/h
Spd
kts
Gust
kts
23/09:00am 27.6 29.2 21.4 69 4.1 NE 15 19 8 10 1017.5 1017.5 0.0
23/08:30am 27.4 29.7 22.0 72 3.6 NE 13 17 7 9 1017.4 1017.4 0.0
23/08:00am 26.7 29.8 22.1 76 3.1 NNE 9 13 5 7 1017.3 1017.3 0.0
23/07:30am 25.9 28.4 21.8 78 2.7 N 11 13 6 7 1017.1 1017.1 0.0
23/07:00am 25.9 28.9 22.0 79 2.6 N 9 13 5 7 1016.8 1016.8 0.0
23/06:30am 24.7 29.3 21.8 84 1.9 CALM 0 0 0 0 1016.2 1016.2 0.0
23/06:00am 24.0 28.6 21.7 87 1.5 CALM 0 0 0 0 1016.0 1016.0 0.0
23/05:30am 24.0 28.5 21.6 86 1.6 CALM 0 2 0 1 1015.6 1015.6 0.0
23/05:00am 24.0 26.3 21.4 85 1.7 N 11 13 6 7 1015.2 1015.2 0.0
23/04:30am 23.9 26.2 21.3 85 1.7 N 11 13 6 7 1014.9 1014.9 0.0
23/04:00am 24.3 26.6 21.4 84 1.9 N 11 15 6 8 1014.7 1014.7 0.0
23/03:30am 24.7 26.3 21.4 82 2.2 N 15 19 8 10 1014.6 1014.6 0.0
23/03:00am 25.4 25.9 22.0 81 2.3 NNE 22 24 12 13 1014.6 1014.6 0.0
23/02:30am 25.4 25.8 21.8 80 2.4 NNE 22 26 12 14 1014.7 1014.7 0.0
23/02:00am 25.4 25.6 22.0 81 2.3 NNE 24 28 13 15 1014.7 1014.7 0.0
23/01:30am 25.5 25.9 22.5 83 2.0 NNE 24 28 13 15 1014.5 1014.5 0.0
23/01:00am 25.6 27.0 22.6 83 2.0 N 19 28 10 15 1014.7 1014.7 0.0
23/12:30am 25.8 26.2 22.5 82 2.2 NNE 24 28 13 15 1015.0 1015.0 0.0
23/12:00am 25.8 25.9 22.5 82 2.2 NNE 26 30 14 16 1015.3 1015.3 0.0
 
Date/Time
EST
Temp
°C
App
Temp
°C
Dew
Point
Rel
Hum
%
Delta-T
°C
Wind Press
QNH
hPa
Press
MSL
hPa
Rain
since 9 am
mm
Dir
 
Spd
km/h
Gust
km/h
Spd
kts
Gust
kts
22/11:30pm 25.9 26.6 22.9 83 2.0 NNE 24 28 13 15 1015.7 1015.7 0.0
22/11:00pm 26.0 25.9 22.9 83 2.1 NNE 28 32 15 17 1015.4 1015.4 0.0
22/10:30pm 26.1 26.3 23.5 85 1.8 N 28 32 15 17 1015.5 1015.5 0.0
22/10:00pm 26.2 26.4 23.4 84 1.9 NNE 28 33 15 18 1015.5 1015.5 0.0
22/09:30pm 26.3 26.5 23.5 84 1.9 NNE 28 33 15 18 1015.2 1015.2 0.0
22/09:00pm 26.1 25.8 23.3 84 1.9 NNE 30 33 16 18 1015.1 1015.1 0.0
22/08:30pm 26.2 26.6 23.7 86 1.7 NNE 28 32 15 17 1014.8 1014.8 0.0
22/08:00pm 26.3 26.5 23.4 84 2.0 NNE 28 32 15 17 1014.5 1014.5 0.0
22/07:30pm 26.4 26.1 23.2 82 2.2 N 30 35 16 19 1014.3 1014.3 0.0
22/07:00pm 26.4 26.3 23.5 84 2.0 NNE 30 33 16 18 1013.8 1013.8 0.0
22/06:30pm 26.5 26.6 23.3 82 2.2 NNE 28 33 15 18 1013.6 1013.6 0.0
22/06:00pm 26.5 26.1 23.1 81 2.3 NNE 30 35 16 19 1013.4 1013.4 0.0
22/05:30pm 26.8 26.2 23.3 81 2.4 NNE 32 37 17 20 1012.9 1012.9 0.0
22/05:00pm 26.9 26.3 23.4 81 2.4 NNE 32 35 17 19 1012.4 1012.4 0.0
22/04:30pm 27.1 27.1 23.8 82 2.3 NNE 30 35 16 19 1012.3 1012.3 0.0
22/04:00pm 27.4 27.7 23.6 80 2.6 NNE 28 35 15 19 1012.3 1012.3 0.0
22/03:30pm 27.8 28.1 23.6 78 2.9 NNE 28 33 15 18 1012.3 1012.3 0.0
22/03:00pm 28.0 27.5 23.6 77 3.0 NNE 32 37 17 20 1012.7 1012.7 0.0
22/02:30pm 28.0 28.4 23.8 78 2.9 NNE 28 33 15 18 1012.9 1012.9 0.0
22/02:00pm 28.1 29.3 23.9 78 2.9 NNE 24 32 13 17 1013.3 1013.3 0.0
22/01:30pm 28.3 29.0 23.6 75 3.2 NNE 26 32 14 17 1013.7 1013.7 0.0
22/01:00pm 28.0 29.1 23.6 77 3.0 NE 24 30 13 16 1014.1 1014.1 0.0
22/12:30pm 28.0 29.4 23.6 77 3.0 NE 22 28 12 15 1014.5 1014.5 0.0
22/12:00pm 27.9 29.7 23.5 77 3.0 NE 20 26 11 14 1015.0 1015.0 0.0
22/11:30am 27.8 29.7 23.4 77 3.0 NE 19 22 10 12 1015.2 1015.2 0.0
22/11:00am 28.2 30.4 23.2 74 3.4 NE 17 20 9 11 1015.5 1015.5 0.0
22/10:30am 27.6 29.9 23.5 78 2.8 NNE 17 20 9 11 1015.8 1015.8 0.0
22/10:00am 27.4 29.3 23.5 79 2.7 NE 19 24 10 13 1016.0 1016.0 0.0
22/09:30am 27.5 29.3 23.2 77 2.9 NE 19 24 10 13 1016.2 1016.2 0.0
22/09:00am 27.6 29.4 23.2 77 3.0 NE 19 24 10 13 1016.2 1016.2 0.0
22/08:30am 27.2 30.1 23.2 79 2.7 NE 13 15 7 8 1016.2 1016.2 0.0
22/08:00am 27.1 29.1 22.3 75 3.2 NNE 15 19 8 10 1016.3 1016.3 0.0
22/07:30am 26.4 28.0 22.2 78 2.8 NNE 17 20 9 11 1016.3 1016.3 0.0
22/07:00am 25.9 28.3 22.2 80 2.5 N 13 17 7 9 1016.2 1016.2 0.0
22/06:30am 25.0 30.1 22.6 86 1.6 CALM 0 0 0 0 1015.9 1015.9 0.0
22/06:00am 23.5 27.8 22.0 91 1.0 W 2 6 1 3 1015.3 1015.3 0.0
22/05:30am 23.0 27.5 21.5 91 1.0 CALM 0 6 0 3 1014.7 1014.7 0.0
22/05:00am 23.2 27.0 21.7 91 1.0 NNW 4 6 2 3 1014.2 1014.2 0.0
22/04:30am 23.6 27.0 21.6 88 1.3 NNW 6 9 3 5 1013.8 1013.8 0.0
22/04:00am 23.8 27.3 21.8 88 1.3 N 6 9 3 5 1013.5 1013.5 0.0
22/03:30am 24.0 27.5 21.9 88 1.4 N 6 13 3 7 1013.3 1013.3 0.0
22/03:00am 24.2 27.2 21.9 87 1.5 N 9 13 5 7 1013.0 1013.0 0.0
22/02:30am 24.2 27.7 22.1 88 1.4 N 7 13 4 7 1013.2 1013.2 0.0
22/02:00am 24.0 27.6 22.0 88 1.3 N 6 11 3 6 1013.3 1013.3 0.0
22/01:30am 24.3 27.4 22.2 88 1.4 N 9 15 5 8 1013.5 1013.5 0.0
22/01:00am 24.4 27.4 22.0 86 1.6 N 9 13 5 7 1013.8 1013.8 0.0
22/12:30am 24.5 27.6 22.1 86 1.6 N 9 13 5 7 1014.1 1014.1 0.0
22/12:00am 24.6 27.5 22.4 87 1.5 N 11 15 6 8 1014.4 1014.4 0.0
 
Date/Time
EST
Temp
°C
App
Temp
°C
Dew
Point
Rel
Hum
%
Delta-T
°C
Wind Press
QNH
hPa
Press
MSL
hPa
Rain
since 9 am
mm
Dir
 
Spd
km/h
Gust
km/h
Spd
kts
Gust
kts
21/11:30pm 24.6 27.3 22.2 86 1.6 N 11 17 6 9 1014.6 1014.6 0.0
21/11:00pm 24.8 27.7 22.4 86 1.6 N 11 15 6 8 1014.7 1014.7 0.0
21/10:30pm 25.2 27.5 22.8 86 1.6 N 15 19 8 10 1014.7 1014.7 0.0
21/10:00pm 25.4 27.8 22.9 86 1.7 N 15 22 8 12 1014.6 1014.6 0.0
21/09:30pm 25.8 26.7 23.3 86 1.7 N 24 32 13 17 1014.5 1014.5 0.0
21/09:00pm 25.9 25.8 23.6 87 1.6 N 30 35 16 19 1014.2 1014.2 0.0
21/08:30pm 26.0 25.6 23.7 87 1.6 N 32 35 17 19 1013.7 1013.7 0.0
21/08:00pm 26.2 25.5 23.6 85 1.8 N 33 41 18 22 1013.4 1013.4 0.0
21/07:30pm 26.1 24.9 23.3 84 1.9 NNE 35 39 19 21 1013.3 1013.3 0.0
21/07:00pm 26.1 25.2 23.8 87 1.6 NNE 35 39 19 21 1013.1 1013.1 0.0
21/06:30pm 26.1 24.7 23.6 86 1.7 NNE 37 43 20 23 1012.9 1012.9 0.0
21/06:00pm 26.2 25.2 23.6 85 1.8 NNE 35 43 19 23 1012.6 1012.6 0.0
21/05:30pm 26.4 24.8 23.3 83 2.1 NNE 37 43 20 23 1012.3 1012.3 0.0
21/05:00pm 26.7 25.4 23.2 81 2.4 NNE 35 39 19 21 1012.1 1012.1 0.0
21/04:30pm 27.1 26.3 23.4 80 2.5 NNE 33 39 18 21 1012.1 1012.1 0.0
21/04:00pm 27.3 26.6 23.5 80 2.6 NNE 33 39 18 21 1012.1 1012.1 0.0
21/03:30pm 27.6 26.9 23.2 77 3.0 NNE 32 39 17 21 1012.0 1012.0 0.0
21/03:00pm 27.8 27.6 23.4 77 3.0 NNE 30 35 16 19 1012.3 1012.3 0.0
21/02:30pm 27.8 28.0 23.4 77 3.0 NNE 28 33 15 18 1012.6 1012.6 0.0
21/02:00pm 27.8 27.6 23.4 77 3.0 NNE 30 37 16 20 1012.9 1012.9 0.0
21/01:30pm 27.9 28.0 23.2 75 3.2 NNE 28 35 15 19 1013.3 1013.3 0.0
21/01:00pm 28.4 28.7 23.0 72 3.7 NNE 26 35 14 19 1013.8 1013.8 0.0
21/12:30pm 28.2 28.5 22.9 73 3.6 NNE 26 32 14 17 1014.3 1014.3 0.0
21/12:00pm 28.1 29.4 23.3 75 3.3 NNE 22 30 12 16 1014.9 1014.9 0.0
21/11:30am 27.9 28.9 22.9 74 3.4 NNE 22 28 12 15 1015.2 1015.2 0.0
21/11:00am 27.8 28.5 22.9 74 3.3 NNE 24 28 13 15 1015.6 1015.6 0.0
21/10:30am 27.5 28.8 22.6 74 3.3 NNE 20 26 11 14 1016.2 1016.2 0.0
21/10:00am 27.6 29.5 23.5 78 2.8 NNE 19 24 10 13 1016.5 1016.5 0.0
21/09:30am 27.2 29.0 22.6 76 3.1 NE 17 19 9 10 1016.5 1016.5 0.0
21/09:00am 27.8 29.6 22.6 73 3.5 NE 17 20 9 11 1016.6 1016.6 0.0
21/08:30am 26.9 29.4 22.4 76 3.0 NNE 13 17 7 9 1016.7 1016.7 0.0
21/08:00am 26.6 27.6 21.8 75 3.2 N 19 24 10 13 1016.7 1016.7 0.0
21/07:30am 26.0 27.9 22.1 79 2.6 N 15 19 8 10 1016.4 1016.4 0.0
21/07:00am 24.7 28.3 22.0 85 1.8 NW 6 9 3 5 1016.3 1016.3 0.0
21/06:30am 24.4 27.4 22.0 86 1.6 N 9 13 5 7 1015.9 1015.9 0.0
21/06:00am 24.2 27.2 21.9 87 1.5 N 9 11 5 6 1015.5 1015.5 0.0
21/05:30am 23.7 27.1 21.7 88 1.3 N 6 9 3 5 1015.3 1015.3 0.0
21/05:00am 23.7 26.6 21.7 88 1.3 N 9 13 5 7 1014.9 1014.9 0.0
21/04:30am 23.2 27.4 21.7 91 1.0 N 2 7 1 4 1014.7 1014.7 0.0
21/04:00am 23.2 26.4 21.7 91 1.0 N 7 9 4 5 1014.3 1014.3 0.0
21/03:30am 23.4 27.9 21.6 90 1.2 CALM 0 4 0 2 1014.3 1014.3 0.0
21/03:00am 23.6 26.8 21.6 88 1.3 N 7 11 4 6 1014.1 1014.1 0.0
21/02:30am 24.0 26.3 21.4 85 1.7 N 11 15 6 8 1014.1 1014.1 0.0
21/02:00am 24.2 27.0 21.6 85 1.7 N 9 15 5 8 1014.4 1014.4 0.0
21/01:30am 24.6 26.9 21.4 82 2.1 N 11 17 6 9 1014.6 1014.6 0.0
21/01:00am 24.9 24.7 22.1 84 1.9 N 26 35 14 19 1014.8 1014.8 0.0
21/12:30am 25.4 24.4 22.6 84 1.9 NNE 32 35 17 19 1014.7 1014.7 0.0
21/12:00am 25.5 24.6 22.8 85 1.8 NNE 32 37 17 20 1015.0 1015.0 0.0
 
Date/Time
EST
Temp
°C
App
Temp
°C
Dew
Point
Rel
Hum
%
Delta-T
°C
Wind Press
QNH
hPa
Press
MSL
hPa
Rain
since 9 am
mm
Dir
 
Spd
km/h
Gust
km/h
Spd
kts
Gust
kts
20/11:30pm 25.7 25.1 22.6 83 2.1 N 30 33 16 18 1015.7 1015.7 0.0
20/11:00pm 25.8 25.0 22.4 81 2.3 NNE 30 33 16 18 1016.1 1016.1 0.0
20/10:30pm 25.9 25.8 22.9 83 2.0 NNE 28 32 15 17 1016.4 1016.4 0.0
20/10:00pm 26.0 27.1 23.0 83 2.0 NNE 22 28 12 15 1016.5 1016.5 0.0
20/09:30pm 26.0 27.1 23.0 83 2.0 NNE 22 28 12 15 1016.4 1016.4 0.0
20/09:00pm 26.0 27.0 22.9 83 2.1 NNE 22 26 12 14 1016.1 1016.1 0.0
20/08:30pm 26.1 27.1 22.8 82 2.2 NNE 22 26 12 14 1015.8 1015.8 0.0
20/08:00pm 26.1 26.8 23.0 83 2.1 NNE 24 30 13 16 1015.6 1015.6 0.0
20/07:30pm 26.1 26.3 22.8 82 2.2 NNE 26 32 14 17 1015.3 1015.3 0.0
20/07:00pm 26.1 26.2 23.2 84 2.0 NNE 28 33 15 18 1014.7 1014.7 0.0
20/06:30pm 26.0 25.8 23.4 85 1.8 NNE 30 33 16 18 1014.5 1014.5 0.0
20/06:00pm 26.2 25.8 23.0 82 2.2 NNE 30 33 16 18 1013.9 1013.9 0.0
20/05:30pm 26.4 25.4 22.7 80 2.5 NNE 32 35 17 19 1013.6 1013.6 0.0
20/05:00pm 26.6 25.7 22.9 80 2.5 NNE 32 37 17 20 1013.4 1013.4 0.0
20/04:30pm 26.9 26.4 22.9 79 2.7 NNE 30 37 16 20 1013.3 1013.3 0.0
20/04:00pm 27.1 26.9 22.8 77 2.9 NE 28 35 15 19 1013.2 1013.2 0.0
20/03:30pm 27.3 27.6 22.9 77 3.0 NE 26 33 14 18 1013.2 1013.2 0.0
20/03:00pm 27.6 27.7 22.6 74 3.4 NE 26 33 14 18 1013.4 1013.4 0.0
20/02:30pm 28.2 28.3 22.6 71 3.8 NE 26 32 14 17 1013.3 1013.3 0.0
20/02:00pm 28.5 28.8 22.9 71 3.8 NE 26 32 14 17 1013.6 1013.6 0.0
20/01:30pm 28.2 28.6 23.1 74 3.5 NE 26 32 14 17 1014.2 1014.2 0.0
20/01:00pm 28.3 28.7 23.2 74 3.5 NE 26 32 14 17 1014.6 1014.6 0.0
20/12:30pm 28.5 29.9 23.5 74 3.4 NE 22 30 12 16 1015.2 1015.2 0.0
20/12:00pm 28.4 29.9 23.0 72 3.7 ENE 20 26 11 14 1015.5 1015.5 0.0
20/11:30am 28.2 29.8 22.9 73 3.6 NE 19 24 10 13 1016.0 1016.0 0.0
20/11:00am 27.9 29.9 22.9 74 3.4 NE 17 22 9 12 1016.3 1016.3 0.0
20/10:30am 28.6 30.5 22.7 70 4.0 NE 17 22 9 12 1016.7 1016.7 0.0
20/10:00am 28.1 29.9 22.5 71 3.8 NE 17 22 9 12 1016.7 1016.7 0.0
20/09:30am 27.8 29.2 22.5 73 3.6 NE 19 22 10 12 1016.8 1016.8 0.0

Other Formats:

Comma delimited format used in spreadsheet applications
http://www.bom.gov.au/fwo/IDQ60801/IDQ60801.94373.axf

JavaScript Object Notation format (JSON) in row-major order
http://www.bom.gov.au/fwo/IDQ60801/IDQ60801.94373.json